Change the Weather History Date:

Sunday, March 16, 2014

  Actual Average Record
Temperature  
Mean Temperature 22 °F -  
Max Temperature 35 °F 43 °F 55 °F (1971)
Min Temperature 8 °F 20 °F -6 °F (1993)
Degree Days  
Heating Degree Days 44    
Moisture  
Dew Point 2 °F    
Average Humidity 45    
Maximum Humidity 81    
Minimum Humidity 33    
Precipitation  
Precipitation 0.00 in - - ()
Sea Level Pressure  
Sea Level Pressure 29.93 in    
Wind  
Wind Speed 13 mph (WNW)    
Max Wind Speed 22 mph    
Max Gust Speed 32 mph    
Visibility 10 miles    
Events      
Averages and records for this station are not official NWS values.
T = Trace of Precipitation, MM = Missing Value Source: NWS Daily Summary

Daily Weather History Graph

Daily Weather History Graph

Search for Another Location

Airport or City:

Trip Planner

Search our weather history database for the weather conditions in past years. The results will help you decide how hot, cold, wet, or windy it might be!

Date:

Astronomy

Mar. 16, 2014 Rise Set
Actual Time 6:49 AM EDT 6:46 PM EDT
Civil Twilight 6:20 AM EDT 7:15 PM EDT
Nautical Twilight 5:46 AM EDT 7:49 PM EDT
Astronomical Twilight 5:11 AM EDT 8:23 PM EDT
Moon 7:02 PM EDT (3/16) 6:30 AM EDT (3/16)
Length of Visible Light 12h 54m
Length of Day
11h 56m
Full, 100% of the Moon is Illuminated
Mar 16
Full
Mar 16
Full
Mar 23
Last Quarter
Mar 30
New
Apr 7
First Quarter

Hourly Weather History & Observations

Time (EDT) Temp. Windchill Dew Point Humidity Pressure Visibility Wind Dir Wind Speed Gust Speed Precip Events Conditions
12:15 AM 33.8 °F 27.7 °F 26.6 °F 75% 29.68 in 10.0 mi NNW 6.9 mph - N/A   Mostly Cloudy
12:35 AM 33.8 °F 26.4 °F 28.4 °F 81% 29.69 in 10.0 mi NW 9.2 mph - N/A   Mostly Cloudy
12:55 AM 35.6 °F 27.5 °F 26.6 °F 70% 29.70 in 10.0 mi WNW 11.5 mph - N/A   Mostly Cloudy
1:15 AM 33.8 °F 25.8 °F 24.8 °F 70% 29.71 in 10.0 mi WNW 10.4 mph 16.1 mph N/A   Mostly Cloudy
1:35 AM 33.8 °F 25.3 °F 21.2 °F 60% 29.72 in 10.0 mi NW 11.5 mph 20.7 mph N/A   Partly Cloudy
1:55 AM 33.8 °F 23.9 °F 19.4 °F 56% 29.73 in 10.0 mi NW 15.0 mph 23.0 mph N/A   Clear
2:15 AM 32.0 °F 22.5 °F 17.6 °F 55% 29.73 in 10.0 mi NW 12.7 mph 25.3 mph N/A   Clear
2:35 AM 30.2 °F 20.8 °F 17.6 °F 60% 29.73 in 10.0 mi WNW 11.5 mph 18.4 mph N/A   Clear
2:55 AM 30.2 °F 20.2 °F 17.6 °F 60% 29.74 in 10.0 mi WNW 12.7 mph 20.7 mph N/A   Clear
3:15 AM 30.2 °F 18.9 °F 14.0 °F 51% 29.74 in 10.0 mi WNW 16.1 mph 24.2 mph N/A   Clear
3:35 AM 30.2 °F 18.1 °F 12.2 °F 47% 29.75 in 10.0 mi NW 18.4 mph 24.2 mph N/A   Clear
3:55 AM 28.4 °F 17.0 °F 10.4 °F 47% 29.77 in 10.0 mi WNW 15.0 mph 25.3 mph N/A   Clear
4:15 AM 28.4 °F 15.1 °F 8.6 °F 43% 29.78 in 10.0 mi WNW 20.7 mph 29.9 mph N/A   Clear
4:35 AM 28.4 °F 18.0 °F 8.6 °F 43% 29.80 in 10.0 mi West 12.7 mph 19.6 mph N/A   Clear
4:55 AM 26.6 °F 15.2 °F 8.6 °F 47% 29.81 in 10.0 mi West 13.8 mph 21.9 mph N/A   Clear
5:15 AM 26.6 °F 16.2 °F 8.6 °F 47% 29.82 in 10.0 mi West 11.5 mph 21.9 mph N/A   Clear
5:35 AM 26.6 °F 16.2 °F 6.8 °F 43% 29.83 in 10.0 mi WNW 11.5 mph 25.3 mph N/A   Clear
5:55 AM 24.8 °F 14.0 °F 5.0 °F 43% 29.83 in 10.0 mi West 11.5 mph 21.9 mph N/A   Clear
6:15 AM 24.8 °F 14.0 °F 5.0 °F 43% 29.85 in 10.0 mi WNW 11.5 mph 19.6 mph N/A   Clear
6:35 AM 23.0 °F 12.4 °F 5.0 °F 46% 29.86 in 10.0 mi WNW 10.4 mph 18.4 mph N/A   Clear
6:55 AM 21.2 °F 10.1 °F 5.0 °F 50% 29.86 in 10.0 mi West 10.4 mph - N/A   Clear
7:15 AM 21.2 °F 12.6 °F 6.8 °F 54% 29.87 in 10.0 mi West 6.9 mph - N/A   Partly Cloudy
7:35 AM 21.2 °F 10.9 °F 5.0 °F 50% 29.89 in 10.0 mi WNW 9.2 mph 20.7 mph N/A   Partly Cloudy
7:55 AM 19.4 °F 6.6 °F 1.4 °F 46% 29.90 in 10.0 mi West 12.7 mph 21.9 mph N/A   Clear
8:15 AM 19.4 °F 5.5 °F 1.4 °F 46% 29.91 in 10.0 mi West 15.0 mph 19.6 mph N/A   Clear
8:35 AM 19.4 °F 6.0 °F 1.4 °F 46% 29.91 in 10.0 mi WNW 13.8 mph 26.5 mph N/A   Clear
8:55 AM 19.4 °F 4.5 °F 1.4 °F 46% 29.92 in 10.0 mi WSW 17.3 mph 21.9 mph N/A   Clear
9:15 AM 19.4 °F 4.1 °F 3.2 °F 49% 29.92 in 10.0 mi West 18.4 mph 25.3 mph N/A   Clear
9:35 AM 19.4 °F 5.5 °F 1.4 °F 46% 29.92 in 10.0 mi West 15.0 mph 23.0 mph N/A   Clear
9:55 AM 19.4 °F 5.5 °F -0.4 °F 42% 29.92 in 10.0 mi West 15.0 mph 25.3 mph N/A   Clear
10:15 AM 19.4 °F 3.6 °F -0.4 °F 42% 29.93 in 10.0 mi West 19.6 mph 25.3 mph N/A   Clear
10:35 AM 21.2 °F 8.9 °F -0.4 °F 39% 29.94 in 10.0 mi WSW 12.7 mph 23.0 mph N/A   Partly Cloudy
10:55 AM 21.2 °F 7.3 °F -0.4 °F 39% 29.95 in 10.0 mi West 16.1 mph 25.3 mph N/A   Partly Cloudy
11:15 AM 21.2 °F 6.4 °F -0.4 °F 39% 29.96 in 10.0 mi WNW 18.4 mph 27.6 mph N/A   Clear
11:35 AM 21.2 °F 7.3 °F -0.4 °F 39% 29.96 in 10.0 mi West 16.1 mph 26.5 mph N/A   Clear
11:55 AM 21.2 °F 7.8 °F -0.4 °F 39% 29.95 in 10.0 mi West 15.0 mph 25.3 mph N/A   Clear
12:15 PM 21.2 °F 5.2 °F -2.2 °F 36% 29.96 in 10.0 mi WNW 21.9 mph 27.6 mph N/A   Clear
12:35 PM 21.2 °F 8.9 °F -0.4 °F 39% 29.96 in 10.0 mi West 12.7 mph 21.9 mph N/A   Clear
12:55 PM 21.2 °F 8.9 °F -0.4 °F 39% 29.95 in 10.0 mi West 12.7 mph 20.7 mph N/A   Clear
1:15 PM 23.0 °F 9.2 °F -0.4 °F 36% 29.95 in 10.0 mi West 17.3 mph 26.5 mph N/A   Partly Cloudy
1:35 PM 21.2 °F 6.8 °F -0.4 °F 39% 29.94 in 10.0 mi WSW 17.3 mph 25.3 mph N/A   Partly Cloudy
1:55 PM 21.2 °F 6.4 °F -2.2 °F 36% 29.95 in 10.0 mi West 18.4 mph 27.6 mph N/A   Clear
2:15 PM 21.2 °F 7.8 °F -2.2 °F 36% 29.96 in 10.0 mi West 15.0 mph 28.8 mph N/A   Clear
2:35 PM 21.2 °F 5.6 °F -2.2 °F 36% 29.97 in 10.0 mi WNW 20.7 mph 25.3 mph N/A   Clear
2:55 PM 21.2 °F 6.0 °F -2.2 °F 36% 29.96 in 10.0 mi WNW 19.6 mph 27.6 mph N/A   Clear
3:15 PM 21.2 °F 5.6 °F -2.2 °F 36% 29.97 in 10.0 mi WNW 20.7 mph 32.2 mph N/A   Clear
3:35 PM 21.2 °F 7.3 °F -2.2 °F 36% 29.98 in 10.0 mi West 16.1 mph 27.6 mph N/A   Clear
3:55 PM 21.2 °F 7.8 °F -2.2 °F 36% 29.98 in 10.0 mi West 15.0 mph 24.2 mph N/A   Clear
4:15 PM 21.2 °F 7.3 °F -2.2 °F 36% 29.98 in 10.0 mi West 16.1 mph 26.5 mph N/A   Clear
4:35 PM 19.4 °F 4.5 °F -2.2 °F 39% 29.98 in 10.0 mi West 17.3 mph 27.6 mph N/A   Clear
4:55 PM 19.4 °F 4.5 °F -4.0 °F 36% 29.99 in 10.0 mi West 17.3 mph 23.0 mph N/A   Clear
5:15 PM 19.4 °F 5.0 °F -5.8 °F 33% 30.01 in 10.0 mi WNW 16.1 mph 26.5 mph N/A   Clear
5:35 PM 19.4 °F 6.0 °F -5.8 °F 33% 30.02 in 10.0 mi West 13.8 mph 26.5 mph N/A   Clear
5:55 PM 19.4 °F 6.6 °F -5.8 °F 33% 30.02 in 10.0 mi WNW 12.7 mph 20.7 mph N/A   Clear
6:15 PM 17.6 °F 5.0 °F -5.8 °F 35% 30.02 in 10.0 mi WNW 11.5 mph 20.7 mph N/A   Partly Cloudy
6:35 PM 17.6 °F 6.4 °F -5.8 °F 35% 30.03 in 10.0 mi WNW 9.2 mph - N/A   Partly Cloudy
6:55 PM 15.8 °F 2.1 °F -5.8 °F 38% 30.04 in 10.0 mi West 12.7 mph 26.5 mph N/A   Clear
7:15 PM 15.8 °F 3.4 °F -7.6 °F 35% 30.04 in 10.0 mi WNW 10.4 mph 17.3 mph N/A   Clear
7:35 PM 15.8 °F 3.4 °F -5.8 °F 38% 30.04 in 10.0 mi WNW 10.4 mph - N/A   Clear
7:55 PM 14.0 °F 0.5 °F -5.8 °F 41% 30.04 in 10.0 mi WNW 11.5 mph 18.4 mph N/A   Clear
8:15 PM 14.0 °F 2.9 °F -7.6 °F 38% 30.05 in 10.0 mi WNW 8.1 mph 17.3 mph N/A   Clear
8:35 PM 12.2 °F 1.7 °F -7.6 °F 41% 30.07 in 10.0 mi NW 6.9 mph 18.4 mph N/A   Clear
8:55 PM 12.2 °F -2.5 °F -7.6 °F 41% 30.09 in 10.0 mi NW 12.7 mph 17.3 mph N/A   Clear
9:15 PM 10.4 °F -4.1 °F -7.6 °F 44% 30.10 in 10.0 mi NW 11.5 mph 17.3 mph N/A   Clear
9:35 PM 10.4 °F -4.1 °F -5.8 °F 48% 30.11 in 10.0 mi WNW 11.5 mph - N/A   Clear
9:55 PM 10.4 °F -3.3 °F -7.6 °F 44% 30.12 in 10.0 mi West 10.4 mph - N/A   Clear
10:15 PM 10.4 °F -3.3 °F -7.6 °F 44% 30.13 in 10.0 mi West 10.4 mph 16.1 mph N/A   Clear
10:35 PM 8.6 °F -3.7 °F -7.6 °F 48% 30.13 in 10.0 mi West 8.1 mph - N/A   Clear
10:55 PM 8.6 °F -5.5 °F -7.6 °F 48% 30.13 in 10.0 mi WNW 10.4 mph 18.4 mph N/A   Clear
11:15 PM 8.6 °F -1.3 °F -7.6 °F 48% 30.13 in 10.0 mi WNW 5.8 mph - N/A   Clear
11:35 PM 8.6 °F -1.3 °F -7.6 °F 48% 30.13 in 10.0 mi WNW 5.8 mph - N/A   Clear
11:55 PM 8.6 °F 0.1 °F -7.6 °F 48% 30.13 in 10.0 mi West 4.6 mph - N/A   Clear